sensor_id;sensor_type;location;lat;lon;timestamp;pressure;altitude;pressure_sealevel;temperature;humidity
52855;BME280;38719;51.418;7.286;2022-07-29T00:00:38;99843.34;;;21.50;42.75
52855;BME280;38719;51.418;7.286;2022-07-29T00:03:07;99834.81;;;21.45;43.20
52855;BME280;38719;51.418;7.286;2022-07-29T00:05:35;99832.50;;;21.31;43.25
52855;BME280;38719;51.418;7.286;2022-07-29T00:08:03;99833.84;;;21.56;42.76
52855;BME280;38719;51.418;7.286;2022-07-29T00:10:37;99834.06;;;21.33;43.33
52855;BME280;38719;51.418;7.286;2022-07-29T00:13:05;99842.91;;;21.25;44.40
52855;BME280;38719;51.418;7.286;2022-07-29T00:15:33;99841.19;;;21.24;43.31
52855;BME280;38719;51.418;7.286;2022-07-29T00:18:00;99836.78;;;21.53;42.83
52855;BME280;38719;51.418;7.286;2022-07-29T00:20:29;99831.94;;;21.37;43.04
52855;BME280;38719;51.418;7.286;2022-07-29T00:22:57;99835.28;;;20.90;44.40
52855;BME280;38719;51.418;7.286;2022-07-29T00:25:25;99833.66;;;21.38;43.46
52855;BME280;38719;51.418;7.286;2022-07-29T00:27:53;99822.41;;;21.42;43.21
52855;BME280;38719;51.418;7.286;2022-07-29T00:30:20;99823.69;;;21.29;43.60
52855;BME280;38719;51.418;7.286;2022-07-29T00:32:48;99826.50;;;21.07;44.71
52855;BME280;38719;51.418;7.286;2022-07-29T00:35:16;99818.28;;;21.38;43.56
52855;BME280;38719;51.418;7.286;2022-07-29T00:38:02;99813.53;;;21.21;43.64
52855;BME280;38719;51.418;7.286;2022-07-29T00:40:30;99812.94;;;20.88;44.79
52855;BME280;38719;51.418;7.286;2022-07-29T00:42:57;99810.81;;;21.01;44.60
52855;BME280;38719;51.418;7.286;2022-07-29T00:45:25;99804.84;;;20.98;44.72
52855;BME280;38719;51.418;7.286;2022-07-29T00:47:53;99805.38;;;20.82;45.33
52855;BME280;38719;51.418;7.286;2022-07-29T00:50:20;99794.69;;;20.80;45.29
52855;BME280;38719;51.418;7.286;2022-07-29T00:52:48;99792.78;;;20.71;45.57
52855;BME280;38719;51.418;7.286;2022-07-29T00:55:18;99790.59;;;20.96;44.86
52855;BME280;38719;51.418;7.286;2022-07-29T00:57:45;99793.84;;;20.89;44.62
52855;BME280;38719;51.418;7.286;2022-07-29T01:00:17;99788.19;;;20.61;45.47
52855;BME280;38719;51.418;7.286;2022-07-29T01:02:45;99791.13;;;20.39;46.20
52855;BME280;38719;51.418;7.286;2022-07-29T01:05:16;99779.22;;;20.20;46.72
52855;BME280;38719;51.418;7.286;2022-07-29T01:07:46;99779.41;;;20.28;46.21
52855;BME280;38719;51.418;7.286;2022-07-29T01:10:14;99773.06;;;20.49;45.69
52855;BME280;38719;51.418;7.286;2022-07-29T01:12:46;99779.53;;;20.27;46.04
52855;BME280;38719;51.418;7.286;2022-07-29T01:15:15;99765.03;;;19.97;46.71
52855;BME280;38719;51.418;7.286;2022-07-29T01:17:45;99765.84;;;20.19;46.50
52855;BME280;38719;51.418;7.286;2022-07-29T01:20:25;99753.81;;;20.02;46.89
52855;BME280;38719;51.418;7.286;2022-07-29T01:23:08;99759.91;;;20.25;46.17
52855;BME280;38719;51.418;7.286;2022-07-29T01:26:10;99757.13;;;20.05;46.70
52855;BME280;38719;51.418;7.286;2022-07-29T01:29:02;99761.34;;;19.77;47.55
52855;BME280;38719;51.418;7.286;2022-07-29T01:31:38;99760.94;;;20.03;46.84
52855;BME280;38719;51.418;7.286;2022-07-29T01:34:29;99753.78;;;20.23;46.07
52855;BME280;38719;51.418;7.286;2022-07-29T01:37:06;99747.16;;;20.06;47.15
52855;BME280;38719;51.418;7.286;2022-07-29T01:39:37;99752.69;;;20.04;46.94
52855;BME280;38719;51.418;7.286;2022-07-29T01:42:15;99761.47;;;19.96;47.37
52855;BME280;38719;51.418;7.286;2022-07-29T01:44:54;99750.97;;;19.82;47.40
52855;BME280;38719;51.418;7.286;2022-07-29T01:47:26;99750.28;;;20.01;47.44
52855;BME280;38719;51.418;7.286;2022-07-29T01:50:04;99753.69;;;20.03;47.31
52855;BME280;38719;51.418;7.286;2022-07-29T01:52:36;99744.53;;;19.73;47.92
52855;BME280;38719;51.418;7.286;2022-07-29T01:55:09;99739.28;;;19.72;48.49
52855;BME280;38719;51.418;7.286;2022-07-29T01:57:42;99742.97;;;19.49;48.29
52855;BME280;38719;51.418;7.286;2022-07-29T02:00:13;99742.28;;;20.00;47.53
52855;BME280;38719;51.418;7.286;2022-07-29T02:02:42;99739.44;;;19.80;47.86
52855;BME280;38719;51.418;7.286;2022-07-29T02:05:13;99734.91;;;20.02;46.98
52855;BME280;38719;51.418;7.286;2022-07-29T02:07:43;99747.78;;;19.67;48.46
52855;BME280;38719;51.418;7.286;2022-07-29T02:10:12;99740.19;;;19.61;47.96
52855;BME280;38719;51.418;7.286;2022-07-29T02:12:42;99743.50;;;19.86;47.77
52855;BME280;38719;51.418;7.286;2022-07-29T02:15:18;99731.41;;;20.11;47.37
52855;BME280;38719;51.418;7.286;2022-07-29T02:17:51;99725.81;;;19.81;48.25
52855;BME280;38719;51.418;7.286;2022-07-29T02:20:22;99729.06;;;19.96;48.20
52855;BME280;38719;51.418;7.286;2022-07-29T02:22:53;99724.19;;;19.90;48.07
52855;BME280;38719;51.418;7.286;2022-07-29T02:25:23;99712.56;;;19.78;48.53
52855;BME280;38719;51.418;7.286;2022-07-29T02:28:03;99710.53;;;19.92;48.21
52855;BME280;38719;51.418;7.286;2022-07-29T02:30:36;99707.09;;;19.90;48.32
52855;BME280;38719;51.418;7.286;2022-07-29T02:33:07;99700.72;;;19.91;48.13
52855;BME280;38719;51.418;7.286;2022-07-29T02:35:36;99708.53;;;19.84;48.77
52855;BME280;38719;51.418;7.286;2022-07-29T02:38:05;99716.47;;;19.64;49.29
52855;BME280;38719;51.418;7.286;2022-07-29T02:40:53;99725.91;;;19.49;49.70
52855;BME280;38719;51.418;7.286;2022-07-29T02:43:22;99723.69;;;19.54;49.49
52855;BME280;38719;51.418;7.286;2022-07-29T02:45:53;99726.91;;;19.69;50.02
52855;BME280;38719;51.418;7.286;2022-07-29T02:48:27;99723.19;;;19.49;50.24
52855;BME280;38719;51.418;7.286;2022-07-29T02:51:05;99727.44;;;19.42;50.50
52855;BME280;38719;51.418;7.286;2022-07-29T02:53:38;99730.44;;;19.27;50.15
52855;BME280;38719;51.418;7.286;2022-07-29T02:56:11;99735.47;;;19.32;50.19
52855;BME280;38719;51.418;7.286;2022-07-29T02:58:44;99725.56;;;19.63;49.17
52855;BME280;38719;51.418;7.286;2022-07-29T03:01:15;99721.88;;;19.64;50.19
52855;BME280;38719;51.418;7.286;2022-07-29T03:03:47;99722.53;;;19.78;49.72
52855;BME280;38719;51.418;7.286;2022-07-29T03:06:17;99716.88;;;19.60;49.72
52855;BME280;38719;51.418;7.286;2022-07-29T03:09:03;99710.69;;;19.69;49.01
52855;BME280;38719;51.418;7.286;2022-07-29T03:11:38;99713.50;;;19.68;49.39
52855;BME280;38719;51.418;7.286;2022-07-29T03:14:17;99708.91;;;19.58;49.67
52855;BME280;38719;51.418;7.286;2022-07-29T03:16:48;99716.81;;;19.50;49.92
52855;BME280;38719;51.418;7.286;2022-07-29T03:19:16;99711.00;;;19.76;49.42
52855;BME280;38719;51.418;7.286;2022-07-29T03:21:44;99722.16;;;19.40;50.32
52855;BME280;38719;51.418;7.286;2022-07-29T03:24:25;99724.06;;;19.28;50.60
52855;BME280;38719;51.418;7.286;2022-07-29T03:26:54;99710.75;;;19.37;50.83
52855;BME280;38719;51.418;7.286;2022-07-29T03:29:22;99711.56;;;19.27;51.19
52855;BME280;38719;51.418;7.286;2022-07-29T03:32:00;99709.00;;;19.26;51.18
52855;BME280;38719;51.418;7.286;2022-07-29T03:34:29;99706.47;;;19.34;51.55
52855;BME280;38719;51.418;7.286;2022-07-29T03:36:57;99707.97;;;19.06;51.88
52855;BME280;38719;51.418;7.286;2022-07-29T03:39:28;99707.75;;;19.30;51.63
52855;BME280;38719;51.418;7.286;2022-07-29T03:41:58;99705.84;;;19.42;51.18
52855;BME280;38719;51.418;7.286;2022-07-29T03:44:27;99708.47;;;19.32;51.80
52855;BME280;38719;51.418;7.286;2022-07-29T03:46:57;99714.25;;;19.06;52.39
52855;BME280;38719;51.418;7.286;2022-07-29T03:49:27;99721.69;;;19.14;52.49
52855;BME280;38719;51.418;7.286;2022-07-29T03:51:55;99741.66;;;18.79;53.10
52855;BME280;38719;51.418;7.286;2022-07-29T03:54:23;99738.47;;;18.85;53.67
52855;BME280;38719;51.418;7.286;2022-07-29T03:56:51;99753.94;;;19.15;51.99
52855;BME280;38719;51.418;7.286;2022-07-29T03:59:20;99753.50;;;19.31;51.89
52855;BME280;38719;51.418;7.286;2022-07-29T04:01:49;99746.53;;;19.50;51.39
52855;BME280;38719;51.418;7.286;2022-07-29T04:04:17;99754.69;;;19.60;50.76
52855;BME280;38719;51.418;7.286;2022-07-29T04:06:47;99765.63;;;19.58;51.41
52855;BME280;38719;51.418;7.286;2022-07-29T04:09:14;99774.78;;;19.67;50.25
52855;BME280;38719;51.418;7.286;2022-07-29T04:11:42;99776.81;;;19.75;49.76
52855;BME280;38719;51.418;7.286;2022-07-29T04:14:30;99762.31;;;19.76;49.70
52855;BME280;38719;51.418;7.286;2022-07-29T04:16:58;99771.69;;;19.72;50.38
52855;BME280;38719;51.418;7.286;2022-07-29T04:19:26;99777.94;;;19.51;50.25
52855;BME280;38719;51.418;7.286;2022-07-29T04:21:55;99789.66;;;19.61;49.56
52855;BME280;38719;51.418;7.286;2022-07-29T04:24:23;99774.84;;;19.56;49.68
52855;BME280;38719;51.418;7.286;2022-07-29T04:26:50;99782.28;;;19.63;49.67
52855;BME280;38719;51.418;7.286;2022-07-29T04:29:18;99799.59;;;19.40;49.67
52855;BME280;38719;51.418;7.286;2022-07-29T04:31:46;99805.09;;;19.17;50.26
52855;BME280;38719;51.418;7.286;2022-07-29T04:34:13;99789.94;;;19.58;49.63
52855;BME280;38719;51.418;7.286;2022-07-29T04:36:42;99802.59;;;19.79;49.73
52855;BME280;38719;51.418;7.286;2022-07-29T04:39:10;99805.31;;;19.79;49.55
52855;BME280;38719;51.418;7.286;2022-07-29T04:41:38;99797.19;;;19.79;50.29
52855;BME280;38719;51.418;7.286;2022-07-29T04:44:08;99797.69;;;19.84;50.96
52855;BME280;38719;51.418;7.286;2022-07-29T04:46:35;99813.69;;;19.43;51.71
52855;BME280;38719;51.418;7.286;2022-07-29T04:49:03;99813.81;;;19.21;53.54
52855;BME280;38719;51.418;7.286;2022-07-29T04:51:31;99813.41;;;19.25;55.06
52855;BME280;38719;51.418;7.286;2022-07-29T04:53:59;99819.75;;;18.80;58.77
52855;BME280;38719;51.418;7.286;2022-07-29T04:56:27;99825.06;;;18.36;61.20
52855;BME280;38719;51.418;7.286;2022-07-29T04:58:55;99823.09;;;18.39;62.48
52855;BME280;38719;51.418;7.286;2022-07-29T05:01:23;99816.13;;;18.25;62.75
52855;BME280;38719;51.418;7.286;2022-07-29T05:03:50;99802.50;;;18.03;62.86
52855;BME280;38719;51.418;7.286;2022-07-29T05:06:25;99803.38;;;18.38;61.05
52855;BME280;38719;51.418;7.286;2022-07-29T05:08:52;99793.81;;;18.57;60.92
52855;BME280;38719;51.418;7.286;2022-07-29T05:11:20;99791.50;;;18.29;61.12
52855;BME280;38719;51.418;7.286;2022-07-29T05:13:56;99794.81;;;18.33;64.21
52855;BME280;38719;51.418;7.286;2022-07-29T05:16:24;99802.38;;;18.50;62.19
52855;BME280;38719;51.418;7.286;2022-07-29T05:18:51;99801.31;;;18.30;64.37
52855;BME280;38719;51.418;7.286;2022-07-29T05:21:19;99803.75;;;18.11;64.82
52855;BME280;38719;51.418;7.286;2022-07-29T05:23:47;99794.69;;;18.23;61.75
52855;BME280;38719;51.418;7.286;2022-07-29T05:26:14;99808.50;;;18.07;63.19
52855;BME280;38719;51.418;7.286;2022-07-29T05:28:42;99797.13;;;18.26;63.58
52855;BME280;38719;51.418;7.286;2022-07-29T05:31:11;99804.69;;;18.44;62.30
52855;BME280;38719;51.418;7.286;2022-07-29T05:33:41;99802.38;;;18.16;64.72
52855;BME280;38719;51.418;7.286;2022-07-29T05:36:08;99820.63;;;18.13;64.84
52855;BME280;38719;51.418;7.286;2022-07-29T05:38:36;99807.44;;;17.85;66.39
52855;BME280;38719;51.418;7.286;2022-07-29T05:41:04;99817.69;;;18.16;65.92
52855;BME280;38719;51.418;7.286;2022-07-29T05:43:32;99809.88;;;18.24;66.51
52855;BME280;38719;51.418;7.286;2022-07-29T05:46:00;99806.19;;;18.48;63.73
52855;BME280;38719;51.418;7.286;2022-07-29T05:48:29;99801.53;;;18.39;64.80
52855;BME280;38719;51.418;7.286;2022-07-29T05:50:56;99807.91;;;18.26;66.02
52855;BME280;38719;51.418;7.286;2022-07-29T05:53:24;99807.16;;;18.13;66.94
52855;BME280;38719;51.418;7.286;2022-07-29T05:55:51;99802.38;;;18.16;66.70
52855;BME280;38719;51.418;7.286;2022-07-29T05:58:19;99805.19;;;18.26;66.84
52855;BME280;38719;51.418;7.286;2022-07-29T06:00:47;99811.59;;;18.36;66.24
52855;BME280;38719;51.418;7.286;2022-07-29T06:03:15;99820.13;;;18.08;66.58
52855;BME280;38719;51.418;7.286;2022-07-29T06:05:44;99822.72;;;18.32;66.62
52855;BME280;38719;51.418;7.286;2022-07-29T06:08:11;99828.25;;;18.30;65.77
52855;BME280;38719;51.418;7.286;2022-07-29T06:10:39;99820.53;;;18.48;64.95
52855;BME280;38719;51.418;7.286;2022-07-29T06:13:06;99818.31;;;18.53;65.40
52855;BME280;38719;51.418;7.286;2022-07-29T06:15:34;99820.66;;;18.47;64.80
52855;BME280;38719;51.418;7.286;2022-07-29T06:18:02;99810.34;;;18.41;66.31
52855;BME280;38719;51.418;7.286;2022-07-29T06:20:30;99823.44;;;18.91;66.01
52855;BME280;38719;51.418;7.286;2022-07-29T06:23:00;99827.69;;;19.16;65.61
52855;BME280;38719;51.418;7.286;2022-07-29T06:25:30;99826.19;;;19.12;64.84
52855;BME280;38719;51.418;7.286;2022-07-29T06:27:58;99828.22;;;18.76;65.55
52855;BME280;38719;51.418;7.286;2022-07-29T06:30:26;99827.09;;;19.01;63.93
52855;BME280;38719;51.418;7.286;2022-07-29T06:32:55;99827.13;;;19.33;62.78
52855;BME280;38719;51.418;7.286;2022-07-29T06:35:22;99836.56;;;19.28;63.66
52855;BME280;38719;51.418;7.286;2022-07-29T06:38:09;99832.00;;;19.07;63.56
52855;BME280;38719;51.418;7.286;2022-07-29T06:40:58;99836.31;;;18.98;66.20
52855;BME280;38719;51.418;7.286;2022-07-29T06:43:33;99830.66;;;19.67;61.46
52855;BME280;38719;51.418;7.286;2022-07-29T06:46:17;99836.06;;;19.34;61.89
52855;BME280;38719;51.418;7.286;2022-07-29T06:48:45;99829.31;;;19.07;64.09
52855;BME280;38719;51.418;7.286;2022-07-29T06:51:14;99826.59;;;19.40;63.16
52855;BME280;38719;51.418;7.286;2022-07-29T06:53:50;99826.59;;;19.40;61.31
52855;BME280;38719;51.418;7.286;2022-07-29T06:56:28;99834.88;;;19.27;61.74
52855;BME280;38719;51.418;7.286;2022-07-29T06:58:56;99834.56;;;19.09;62.80
52855;BME280;38719;51.418;7.286;2022-07-29T07:01:23;99834.66;;;19.51;61.26
52855;BME280;38719;51.418;7.286;2022-07-29T07:03:51;99834.53;;;19.20;62.00
52855;BME280;38719;51.418;7.286;2022-07-29T07:06:19;99836.75;;;19.15;62.80
52855;BME280;38719;51.418;7.286;2022-07-29T07:08:46;99835.81;;;19.05;63.14
52855;BME280;38719;51.418;7.286;2022-07-29T07:11:15;99835.91;;;19.47;63.29
52855;BME280;38719;51.418;7.286;2022-07-29T07:13:43;99832.06;;;19.28;61.75
52855;BME280;38719;51.418;7.286;2022-07-29T07:16:10;99840.94;;;19.52;61.59
52855;BME280;38719;51.418;7.286;2022-07-29T07:18:39;99847.22;;;19.08;62.72
52855;BME280;38719;51.418;7.286;2022-07-29T07:21:06;99845.84;;;19.68;58.08
52855;BME280;38719;51.418;7.286;2022-07-29T07:23:34;99844.28;;;19.97;58.43
52855;BME280;38719;51.418;7.286;2022-07-29T07:26:02;99855.44;;;19.72;58.59
52855;BME280;38719;51.418;7.286;2022-07-29T07:28:33;99859.00;;;19.93;59.28
52855;BME280;38719;51.418;7.286;2022-07-29T07:31:01;99848.97;;;20.26;57.85
52855;BME280;38719;51.418;7.286;2022-07-29T07:33:28;99850.59;;;20.08;59.58
52855;BME280;38719;51.418;7.286;2022-07-29T07:35:56;99856.84;;;20.29;59.61
52855;BME280;38719;51.418;7.286;2022-07-29T07:38:23;99843.44;;;20.59;58.26
52855;BME280;38719;51.418;7.286;2022-07-29T07:40:51;99844.84;;;20.53;59.55
52855;BME280;38719;51.418;7.286;2022-07-29T07:43:19;99853.75;;;20.44;59.81
52855;BME280;38719;51.418;7.286;2022-07-29T07:45:48;99851.69;;;20.26;59.29
52855;BME280;38719;51.418;7.286;2022-07-29T07:48:15;99849.19;;;20.35;60.18
52855;BME280;38719;51.418;7.286;2022-07-29T07:50:43;99850.69;;;20.89;57.46
52855;BME280;38719;51.418;7.286;2022-07-29T07:53:10;99846.75;;;21.13;56.39
52855;BME280;38719;51.418;7.286;2022-07-29T07:55:39;99852.19;;;21.33;57.58
52855;BME280;38719;51.418;7.286;2022-07-29T07:58:27;99849.25;;;20.85;57.23
52855;BME280;38719;51.418;7.286;2022-07-29T08:00:56;99847.03;;;21.00;58.40
52855;BME280;38719;51.418;7.286;2022-07-29T08:03:24;99856.09;;;21.69;56.31
52855;BME280;38719;51.418;7.286;2022-07-29T08:05:51;99855.34;;;21.87;55.69
52855;BME280;38719;51.418;7.286;2022-07-29T08:08:20;99854.38;;;21.68;54.77
52855;BME280;38719;51.418;7.286;2022-07-29T08:10:48;99854.50;;;21.67;55.35
52855;BME280;38719;51.418;7.286;2022-07-29T08:13:25;99849.66;;;21.61;56.43
52855;BME280;38719;51.418;7.286;2022-07-29T08:15:54;99853.91;;;21.44;57.24
52855;BME280;38719;51.418;7.286;2022-07-29T08:18:29;99856.59;;;21.14;57.24
52855;BME280;38719;51.418;7.286;2022-07-29T08:20:57;99857.25;;;21.57;56.07
52855;BME280;38719;51.418;7.286;2022-07-29T08:23:25;99857.31;;;21.46;56.96
52855;BME280;38719;51.418;7.286;2022-07-29T08:26:15;99860.47;;;21.80;56.24
52855;BME280;38719;51.418;7.286;2022-07-29T08:28:43;99865.41;;;22.44;53.41
52855;BME280;38719;51.418;7.286;2022-07-29T08:31:12;99855.72;;;22.69;51.63
52855;BME280;38719;51.418;7.286;2022-07-29T08:33:42;99863.75;;;22.89;52.65
52855;BME280;38719;51.418;7.286;2022-07-29T08:36:09;99861.75;;;22.05;52.22
52855;BME280;38719;51.418;7.286;2022-07-29T08:38:39;99860.22;;;21.83;54.76
52855;BME280;38719;51.418;7.286;2022-07-29T08:41:06;99860.50;;;21.61;54.02
52855;BME280;38719;51.418;7.286;2022-07-29T08:43:34;99857.31;;;21.46;53.83
52855;BME280;38719;51.418;7.286;2022-07-29T08:46:03;99860.19;;;22.03;50.56
52855;BME280;38719;51.418;7.286;2022-07-29T08:48:32;99855.56;;;22.23;50.40
52855;BME280;38719;51.418;7.286;2022-07-29T08:51:02;99863.84;;;22.21;51.70
52855;BME280;38719;51.418;7.286;2022-07-29T08:53:31;99861.88;;;22.04;50.40
52855;BME280;38719;51.418;7.286;2022-07-29T08:55:59;99858.31;;;22.03;50.32
52855;BME280;38719;51.418;7.286;2022-07-29T08:58:31;99858.91;;;21.87;51.62
52855;BME280;38719;51.418;7.286;2022-07-29T09:01:03;99858.44;;;22.12;52.73
52855;BME280;38719;51.418;7.286;2022-07-29T09:03:38;99864.31;;;22.07;51.49
52855;BME280;38719;51.418;7.286;2022-07-29T09:06:08;99865.59;;;22.03;52.98
52855;BME280;38719;51.418;7.286;2022-07-29T09:08:36;99862.97;;;22.21;51.98
52855;BME280;38719;51.418;7.286;2022-07-29T09:11:03;99855.88;;;22.10;52.18
52855;BME280;38719;51.418;7.286;2022-07-29T09:13:33;99863.41;;;22.16;54.18
52855;BME280;38719;51.418;7.286;2022-07-29T09:16:02;99861.81;;;22.33;53.04
52855;BME280;38719;51.418;7.286;2022-07-29T09:18:36;99869.53;;;22.38;53.02
52855;BME280;38719;51.418;7.286;2022-07-29T09:21:04;99870.59;;;21.98;52.32
52855;BME280;38719;51.418;7.286;2022-07-29T09:24:05;99870.13;;;22.22;52.56
52855;BME280;38719;51.418;7.286;2022-07-29T09:26:35;99859.78;;;22.55;51.54
52855;BME280;38719;51.418;7.286;2022-07-29T09:29:11;99859.34;;;22.88;51.97
52855;BME280;38719;51.418;7.286;2022-07-29T09:31:40;99858.78;;;22.84;51.46
52855;BME280;38719;51.418;7.286;2022-07-29T09:34:09;99859.94;;;22.53;51.78
52855;BME280;38719;51.418;7.286;2022-07-29T09:36:40;99856.91;;;22.57;51.06
52855;BME280;38719;51.418;7.286;2022-07-29T09:39:10;99847.72;;;22.67;50.53
52855;BME280;38719;51.418;7.286;2022-07-29T09:41:46;99851.97;;;22.22;51.87
52855;BME280;38719;51.418;7.286;2022-07-29T09:44:14;99854.91;;;22.59;53.10
52855;BME280;38719;51.418;7.286;2022-07-29T09:46:59;99846.53;;;22.42;51.59
52855;BME280;38719;51.418;7.286;2022-07-29T09:49:32;99850.81;;;22.45;50.15
52855;BME280;38719;51.418;7.286;2022-07-29T09:52:04;99844.94;;;22.49;50.98
52855;BME280;38719;51.418;7.286;2022-07-29T09:54:33;99836.44;;;22.72;50.09
52855;BME280;38719;51.418;7.286;2022-07-29T09:57:04;99829.97;;;22.45;51.60
52855;BME280;38719;51.418;7.286;2022-07-29T09:59:33;99828.47;;;22.61;52.05
52855;BME280;38719;51.418;7.286;2022-07-29T10:02:00;99827.53;;;22.42;51.10
52855;BME280;38719;51.418;7.286;2022-07-29T10:04:38;99824.19;;;22.58;52.40
52855;BME280;38719;51.418;7.286;2022-07-29T10:07:06;99827.06;;;22.57;51.87
52855;BME280;38719;51.418;7.286;2022-07-29T10:09:35;99830.06;;;22.06;52.36
52855;BME280;38719;51.418;7.286;2022-07-29T10:12:08;99826.16;;;22.18;51.20
52855;BME280;38719;51.418;7.286;2022-07-29T10:14:37;99840.09;;;21.86;52.29
52855;BME280;38719;51.418;7.286;2022-07-29T10:17:06;99836.16;;;22.28;52.80
52855;BME280;38719;51.418;7.286;2022-07-29T10:19:35;99846.41;;;22.34;52.27
52855;BME280;38719;51.418;7.286;2022-07-29T10:22:05;99841.63;;;21.98;52.59
52855;BME280;38719;51.418;7.286;2022-07-29T10:24:35;99842.03;;;22.13;53.77
52855;BME280;38719;51.418;7.286;2022-07-29T10:27:04;99841.28;;;22.21;52.42
52855;BME280;38719;51.418;7.286;2022-07-29T10:29:32;99842.78;;;21.96;53.44
52855;BME280;38719;51.418;7.286;2022-07-29T10:32:25;99841.91;;;22.05;54.46
52855;BME280;38719;51.418;7.286;2022-07-29T10:35:09;99845.28;;;22.27;53.15
52855;BME280;38719;51.418;7.286;2022-07-29T10:37:51;99852.50;;;22.36;52.19
52855;BME280;38719;51.418;7.286;2022-07-29T10:40:28;99849.56;;;22.29;53.65
52855;BME280;38719;51.418;7.286;2022-07-29T10:43:18;99854.63;;;21.95;52.28
52855;BME280;38719;51.418;7.286;2022-07-29T10:45:48;99848.94;;;21.78;53.18
52855;BME280;38719;51.418;7.286;2022-07-29T10:48:18;99853.06;;;21.92;52.59
52855;BME280;38719;51.418;7.286;2022-07-29T10:50:52;99853.69;;;22.23;51.24
52855;BME280;38719;51.418;7.286;2022-07-29T10:53:20;99855.78;;;22.49;52.54
52855;BME280;38719;51.418;7.286;2022-07-29T10:55:50;99842.38;;;22.48;51.17
52855;BME280;38719;51.418;7.286;2022-07-29T10:58:20;99847.66;;;21.82;53.99
52855;BME280;38719;51.418;7.286;2022-07-29T11:00:49;99849.00;;;22.16;52.66
52855;BME280;38719;51.418;7.286;2022-07-29T11:03:43;99845.56;;;22.23;53.90
52855;BME280;38719;51.418;7.286;2022-07-29T11:06:16;99845.88;;;22.20;52.65
52855;BME280;38719;51.418;7.286;2022-07-29T11:09:14;99852.53;;;22.26;52.05
52855;BME280;38719;51.418;7.286;2022-07-29T11:11:44;99853.59;;;22.15;52.47
52855;BME280;38719;51.418;7.286;2022-07-29T11:14:17;99849.44;;;22.11;51.60
52855;BME280;38719;51.418;7.286;2022-07-29T11:16:59;99840.13;;;22.23;52.84
52855;BME280;38719;51.418;7.286;2022-07-29T11:19:31;99840.03;;;22.15;53.16
52855;BME280;38719;51.418;7.286;2022-07-29T11:22:01;99838.56;;;22.21;53.51
52855;BME280;38719;51.418;7.286;2022-07-29T11:24:31;99835.25;;;22.37;53.99
52855;BME280;38719;51.418;7.286;2022-07-29T11:27:10;99840.66;;;22.37;52.14
52855;BME280;38719;51.418;7.286;2022-07-29T11:29:41;99842.22;;;22.49;51.97
52855;BME280;38719;51.418;7.286;2022-07-29T11:32:16;99844.13;;;22.39;51.71
52855;BME280;38719;51.418;7.286;2022-07-29T11:35:17;99847.31;;;22.05;51.98
52855;BME280;38719;51.418;7.286;2022-07-29T11:38:25;99852.84;;;22.23;51.66
52855;BME280;38719;51.418;7.286;2022-07-29T11:41:24;99853.78;;;21.55;53.54
52855;BME280;38719;51.418;7.286;2022-07-29T11:43:54;99850.03;;;21.95;54.20
52855;BME280;38719;51.418;7.286;2022-07-29T11:46:44;99836.66;;;21.74;54.63
52855;BME280;38719;51.418;7.286;2022-07-29T11:49:13;99843.81;;;21.75;54.51
52855;BME280;38719;51.418;7.286;2022-07-29T11:51:51;99839.00;;;22.16;53.83
52855;BME280;38719;51.418;7.286;2022-07-29T11:54:24;99844.19;;;22.10;53.91
52855;BME280;38719;51.418;7.286;2022-07-29T11:56:53;99844.09;;;22.49;52.66
52855;BME280;38719;51.418;7.286;2022-07-29T11:59:21;99836.22;;;22.83;52.48
52855;BME280;38719;51.418;7.286;2022-07-29T12:01:59;99840.88;;;23.19;51.13
52855;BME280;38719;51.418;7.286;2022-07-29T12:04:50;99844.22;;;23.67;49.28
52855;BME280;38719;51.418;7.286;2022-07-29T12:07:19;99839.44;;;24.31;48.98
52855;BME280;38719;51.418;7.286;2022-07-29T12:10:01;99838.63;;;24.39;48.04
52855;BME280;38719;51.418;7.286;2022-07-29T12:12:31;99830.22;;;22.80;51.00
52855;BME280;38719;51.418;7.286;2022-07-29T12:15:11;99843.88;;;23.88;48.69
52855;BME280;38719;51.418;7.286;2022-07-29T12:17:38;99844.97;;;24.22;47.68
52855;BME280;38719;51.418;7.286;2022-07-29T12:20:07;99835.88;;;24.31;48.47
52855;BME280;38719;51.418;7.286;2022-07-29T12:22:40;99851.28;;;23.96;50.05
52855;BME280;38719;51.418;7.286;2022-07-29T12:25:12;99848.94;;;24.27;47.24
52855;BME280;38719;51.418;7.286;2022-07-29T12:27:59;99861.91;;;24.07;47.91
52855;BME280;38719;51.418;7.286;2022-07-29T12:30:41;99851.63;;;24.54;46.70
52855;BME280;38719;51.418;7.286;2022-07-29T12:33:18;99847.53;;;24.84;45.91
52855;BME280;38719;51.418;7.286;2022-07-29T12:35:49;99850.66;;;24.63;46.02
52855;BME280;38719;51.418;7.286;2022-07-29T12:38:34;99850.47;;;24.99;44.81
52855;BME280;38719;51.418;7.286;2022-07-29T12:41:02;99850.84;;;25.04;44.94
52855;BME280;38719;51.418;7.286;2022-07-29T12:43:30;99850.84;;;25.04;44.74
52855;BME280;38719;51.418;7.286;2022-07-29T12:46:13;99849.94;;;25.38;43.40
52855;BME280;38719;51.418;7.286;2022-07-29T12:48:42;99850.31;;;25.68;43.19
52855;BME280;38719;51.418;7.286;2022-07-29T12:51:11;99854.03;;;26.17;42.36
52855;BME280;38719;51.418;7.286;2022-07-29T12:54:02;99849.16;;;25.11;44.21
52855;BME280;38719;51.418;7.286;2022-07-29T12:56:30;99849.78;;;25.65;42.82
52855;BME280;38719;51.418;7.286;2022-07-29T12:59:16;99847.38;;;26.19;41.57
52855;BME280;38719;51.418;7.286;2022-07-29T13:01:45;99844.78;;;26.34;40.91
52855;BME280;38719;51.418;7.286;2022-07-29T13:04:24;99834.94;;;25.92;41.23
52855;BME280;38719;51.418;7.286;2022-07-29T13:06:59;99832.47;;;26.47;41.07
52855;BME280;38719;51.418;7.286;2022-07-29T13:09:38;99834.94;;;26.25;41.64
52855;BME280;38719;51.418;7.286;2022-07-29T13:12:07;99839.19;;;26.84;39.90
52855;BME280;38719;51.418;7.286;2022-07-29T13:14:37;99845.81;;;27.21;39.65
52855;BME280;38719;51.418;7.286;2022-07-29T13:17:07;99840.09;;;27.31;40.02
52855;BME280;38719;51.418;7.286;2022-07-29T13:19:36;99841.31;;;27.28;40.12
52855;BME280;38719;51.418;7.286;2022-07-29T13:22:06;99836.34;;;27.32;39.07
52855;BME280;38719;51.418;7.286;2022-07-29T13:24:46;99845.19;;;26.71;40.44